Flight Track Log - Related Links

Times and Time Zones

All times are in EST time to prevent confusion due to time zone crossing. See the N207TB flight status page for this flight to view local times or setup timezone preferences in your user account.

Time Position Orientation Groundspeed Altitude Reporting Facility
EST Latitude Longitude Course Direction KTS MPH feet Rate Location/Type
Tue 10:11:00 AM 26.3351 -81.3718 61° Northeast  Level Estimated
Tue 10:12:00 AM 26.3567 -81.3003 71° East  Level FlightAware
Tue 10:12:12 AM 26.2639 -81.4922 66° East 186 214 5,000  Level Miami Center
Tue 10:13:00 AM 26.3875 -81.2331 62° Northeast  Level Estimated
Tue 10:13:12 AM 26.2800 -81.4442 69° East 170 196 5,000  Level Miami Center
Tue 10:14:00 AM 26.4151 -81.1642 66° East  Level FlightAware
Tue 10:14:12 AM 26.2961 -81.3939 70° East 165 190 5,000  Level Miami Center
Tue 10:15:00 AM 26.4426 -81.0953 66° East  Level FlightAware
Tue 10:15:12 AM 26.3183 -81.3483 61° Northeast 165 190 5,000  Level Miami Center
Tue 10:16:00 AM 26.4701 -81.0263 66° East  Level FlightAware
Tue 10:16:12 AM 26.3469 -81.3078 52° Northeast 165 190 5,000  Level Miami Center
Tue 10:17:12 AM 26.3750 -81.2694 51° Northeast 170 196 5,000  Level Miami Center
Tue 10:18:12 AM 26.4056 -81.2289 50° Northeast 175 201 5,000  Level Miami Center
Tue 10:19:12 AM 26.4339 -81.1881 52° Northeast 175 201 5,000  Level Miami Center
Tue 10:20:12 AM 26.4622 -81.1472 52° Northeast 175 201 5,000  Level Miami Center
Tue 10:21:12 AM 26.4928 -81.1067 50° Northeast 175 201 5,000  Level Miami Center
Tue 10:22:12 AM 26.5231 -81.0636 52° Northeast 175 201 5,000 -50 Level Miami Center
Tue 10:23:12 AM 26.5536 -81.0183 53° Northeast 170 196 4,900 -50 Descending Miami Center
Tue 10:24:12 AM 26.5842 -80.9775 50° Northeast 170 196 4,900  Level Miami Center
Tue 10:25:12 AM 26.6144 -80.9369 50° Northeast 170 196 4,900  Level Miami Center
Tue 10:26:12 AM 26.6383 -80.9028 52° Northeast 170 196 4,900  Level Miami Center
Tue 10:27:12 AM 26.6667 -80.8619 52° Northeast 165 190 4,900  Level Miami Center
Tue 10:28:12 AM 26.6992 -80.8167 51° Northeast 165 190 4,900  Level Miami Center
Tue 10:29:12 AM 26.7275 -80.7756 52° Northeast 165 190 4,900  Level Miami Center
Tue 10:30:12 AM 26.7536 -80.7394 51° Northeast 170 196 4,900  Level Miami Center
Tue 10:31:12 AM 26.7817 -80.7008 51° Northeast 165 190 4,900 -250 Level Miami Center
Tue 10:32:12 AM 26.8017 -80.6550 64° Northeast 148 170 4,400 -350 Descending Miami Center
Tue 10:33:12 AM 26.8400 -80.6328 27° Northeast 141 162 4,200 -450 Descending Miami Center
Tue 10:34:12 AM 26.8369 -80.5839 94° East 126 145 3,500 -750 Descending Miami Center
Tue 10:35:12 AM 26.8319 -80.5394 97° East 146 168 2,700 -550 Descending Miami Center
Tue 10:36:12 AM 26.8308 -80.4953 92° East 151 174 2,400 -300 Descending Miami Center
Tue 10:38:00 AM 26.8205 -80.3899 81° East  Level FlightAware
Tue 10:45:00 AM 26.8333 -80.2167 90° East  Level FlightAware
Tue 10:46:00 AM 26.8459 -80.2223 90° East  Level Estimated
Tue 10:47:00 AM 26.8459 -80.2223 90° East  Level Estimated
Tue 10:48:00 AM 26.8459 -80.2223 90° East  Level Estimated
Tue 10:49:00 AM 26.8459 -80.2223 90° East  Level Estimated
Tue 10:50:00 AM 26.8459 -80.2223 90° East  Level Estimated
Tue 10:51:00 AM 26.8459 -80.2223 90° East  Level Estimated
Tue 10:52:00 AM 26.8459 -80.2223 90° East  Level Estimated
Tue 10:53:00 AM 26.8459 -80.2223 90° East  Level Estimated
Tue 10:54:00 AM 26.8459 -80.2223 90° East  Level Estimated
Tue 10:55:00 AM 26.8459 -80.2223 90° East  Level Estimated
Tue 10:56:00 AM 26.8459 -80.2223 90° East  Level Estimated
Tue 10:57:00 AM 26.8459 -80.2223 90° East  Level Estimated
Tue 10:58:00 AM 26.8459 -80.2223 90° East  Level Estimated
Tue 10:59:00 AM 26.8459 -80.2223 90° East  Level Estimated
Tue 11:00:00 AM 26.8459 -80.2223 90° East  Level Estimated
Tue 11:01:00 AM 26.8459 -80.2223 90° East  Level Estimated

Login

Don't have an account? Register now (free) for customized features, flight alerts, and more!